Time;durP1;ratioP1;P1;durP2;ratioP2;P2;SDS_P1;SDS_P2;PMS_P1;PMS_P2;Temp;Humidity;BMP_temperature;BMP_pressure;BME280_temperature;BME280_humidity;BME280_pressure;Samples;Min_cycle;Max_cycle;Signal;HPM_P1;HPM_P2
2022/08/16 00:01:13;;;;;;;3.77;3.47;;;22.50;68.00;;;;;;5087695;28;20463;-52
2022/08/16 00:03:40;;;;;;;3.43;3.07;;;22.50;67.80;;;;;;5067903;28;20448;-52
2022/08/16 00:06:07;;;;;;;4.27;3.87;;;22.60;67.70;;;;;;5090970;28;20487;-52
2022/08/16 00:08:36;;;;;;;4.23;3.20;;;22.60;67.60;;;;;;5089586;28;20460;-52
2022/08/16 00:11:09;;;;;;;4.20;3.70;;;22.60;67.60;;;;;;5089841;28;20460;-52
2022/08/16 00:13:45;;;;;;;4.00;3.13;;;22.50;67.50;;;;;;5087093;28;20539;-52
2022/08/16 00:16:27;;;;;;;4.37;3.63;;;22.50;67.50;;;;;;5088033;28;20444;-52
2022/08/16 00:19:17;;;;;;;5.83;3.87;;;22.50;67.40;;;;;;5091872;28;20510;-52
2022/08/16 00:21:45;;;;;;;3.63;3.33;;;22.50;67.40;;;;;;5063748;28;20521;-52
2022/08/16 00:24:19;;;;;;;3.83;3.53;;;22.50;67.40;;;;;;5069285;28;20456;-52
2022/08/16 00:27:00;;;;;;;3.47;3.17;;;22.50;67.50;;;;;;5085092;28;20459;-52
2022/08/16 00:29:27;;;;;;;3.53;2.97;;;22.50;67.40;;;;;;5068517;28;20544;-52
2022/08/16 00:31:56;;;;;;;4.20;3.47;;;22.50;67.40;;;;;;5086378;28;20484;-52
2022/08/16 00:34:28;;;;;;;3.50;3.30;;;22.40;67.70;;;;;;5089335;28;20531;-52
2022/08/16 00:37:16;;;;;;;3.97;3.67;;;22.40;67.90;;;;;;5073446;28;20465;-52
2022/08/16 00:39:46;;;;;;;4.70;4.33;;;22.30;68.10;;;;;;5088492;28;20486;-52
2022/08/16 00:42:24;;;;;;;3.50;3.30;;;22.30;68.30;;;;;;5073762;28;20789;-52
2022/08/16 00:45:01;;;;;;;4.00;3.60;;;22.30;68.30;;;;;;5072158;28;20905;-52
2022/08/16 00:47:36;;;;;;;3.60;3.17;;;22.20;68.50;;;;;;5092200;28;20459;-52
2022/08/16 00:50:05;;;;;;;5.50;3.90;;;22.20;68.60;;;;;;5087185;28;20464;-52
2022/08/16 00:52:41;;;;;;;4.13;3.83;;;22.20;68.60;;;;;;5072320;28;20791;-52
2022/08/16 00:55:21;;;;;;;3.80;3.50;;;22.20;68.60;;;;;;5085399;28;20488;-52
2022/08/16 00:57:51;;;;;;;4.47;4.07;;;22.10;69.00;;;;;;5090015;28;20468;-52
2022/08/16 01:00:27;;;;;;;5.17;4.67;;;22.00;69.20;;;;;;5089617;28;20448;-52
2022/08/16 01:02:57;;;;;;;6.03;4.77;;;22.00;69.00;;;;;;5087643;28;20468;-52
2022/08/16 01:05:24;;;;;;;4.23;3.67;;;22.00;69.20;;;;;;5069842;28;20467;-52
2022/08/16 01:07:52;;;;;;;4.33;4.00;;;22.00;69.20;;;;;;5084936;28;20483;-52
2022/08/16 01:10:26;;;;;;;3.87;3.47;;;21.90;69.40;;;;;;5068355;28;20466;-52
2022/08/16 01:13:27;;;;;;;4.77;4.33;;;21.90;69.60;;;;;;5085681;28;20487;-52
2022/08/16 01:16:20;;;;;;;4.10;3.70;;;21.80;69.80;;;;;;5063176;28;20868;-52
2022/08/16 01:18:51;;;;;;;4.53;4.13;;;21.80;69.80;;;;;;5080973;28;20566;-52
2022/08/16 01:21:34;;;;;;;3.93;3.63;;;21.80;69.80;;;;;;5087251;28;20942;-52
2022/08/16 01:24:11;;;;;;;4.33;3.93;;;21.70;70.00;;;;;;5088516;28;20452;-52
2022/08/16 01:27:21;;;;;;;4.40;4.00;;;21.70;70.00;;;;;;5086341;28;20457;-52
2022/08/16 01:30:15;;;;;;;5.17;4.20;;;21.70;70.20;;;;;;5045706;28;20872;-52
2022/08/16 01:32:46;;;;;;;4.37;3.97;;;21.60;70.30;;;;;;5086572;28;20449;-52
2022/08/16 01:35:41;;;;;;;4.70;4.30;;;21.70;70.30;;;;;;5087521;28;20500;-52
2022/08/16 01:38:22;;;;;;;5.53;5.03;;;21.70;70.30;;;;;;5079606;28;20957;-51
2022/08/16 01:40:58;;;;;;;4.90;4.47;;;21.70;70.30;;;;;;5086509;28;20461;-51
2022/08/16 01:43:28;;;;;;;4.93;4.50;;;21.60;70.30;;;;;;5086584;28;20479;-52
2022/08/16 01:45:59;;;;;;;4.30;3.90;;;21.60;70.50;;;;;;5053196;28;20472;-51
2022/08/16 01:48:47;;;;;;;4.50;4.00;;;21.60;70.60;;;;;;5072319;28;20461;-52
2022/08/16 01:51:16;;;;;;;5.00;4.40;;;21.50;70.90;;;;;;5070608;28;21071;-52
2022/08/16 01:53:43;;;;;;;4.90;4.40;;;21.40;71.10;;;;;;5087033;28;20861;-51
2022/08/16 01:56:22;;;;;;;5.03;4.50;;;21.40;71.20;;;;;;5090038;28;21027;-52
2022/08/16 01:58:53;;;;;;;5.73;4.90;;;21.40;71.30;;;;;;5092422;28;21028;-51
2022/08/16 02:01:21;;;;;;;5.37;4.87;;;21.30;71.40;;;;;;5087816;28;20946;-52
2022/08/16 02:03:48;;;;;;;5.03;4.50;;;21.30;71.50;;;;;;5090377;28;20475;-52
2022/08/16 02:06:18;;;;;;;4.67;4.27;;;21.30;71.50;;;;;;5090966;28;20526;-51
2022/08/16 02:09:00;;;;;;;4.50;4.13;;;21.30;71.40;;;;;;5086682;28;20460;-52
2022/08/16 02:11:31;;;;;;;7.07;4.37;;;21.30;71.50;;;;;;5070395;28;20460;-52
2022/08/16 02:14:18;;;;;;;6.67;4.70;;;21.20;71.60;;;;;;5089409;28;20460;-51
2022/08/16 02:16:48;;;;;;;5.00;4.50;;;21.20;71.70;;;;;;5070884;28;20488;-52
2022/08/16 02:19:17;;;;;;;5.17;4.67;;;21.20;71.80;;;;;;5072278;28;20471;-52
2022/08/16 02:21:47;;;;;;;4.77;4.37;;;21.10;71.90;;;;;;5074475;28;20460;-52
2022/08/16 02:24:34;;;;;;;5.60;4.63;;;21.10;72.00;;;;;;5072523;28;20514;-52
2022/08/16 02:27:07;;;;;;;6.90;5.17;;;21.10;72.00;;;;;;5090987;28;20532;-52
2022/08/16 02:29:33;;;;;;;5.10;4.63;;;21.10;72.10;;;;;;5086048;28;20472;-52
2022/08/16 02:32:01;;;;;;;5.60;4.57;;;21.20;71.90;;;;;;5085018;28;20684;-51
2022/08/16 02:34:48;;;;;;;5.07;4.63;;;21.10;71.80;;;;;;5076382;28;21019;-51
2022/08/16 02:37:16;;;;;;;5.50;5.00;;;21.10;72.00;;;;;;5050325;28;20457;-51
2022/08/16 02:39:46;;;;;;;5.27;4.70;;;21.10;72.00;;;;;;5086175;28;20549;-49
2022/08/16 02:42:20;;;;;;;5.03;4.63;;;21.00;72.10;;;;;;5068071;28;20980;-49
2022/08/16 02:44:47;;;;;;;5.83;5.33;;;21.00;72.30;;;;;;5066080;28;20457;-50
2022/08/16 02:47:15;;;;;;;5.30;4.57;;;21.00;72.40;;;;;;5067904;28;20876;-49
2022/08/16 02:49:51;;;;;;;5.60;4.83;;;20.90;72.40;;;;;;5083444;28;20583;-50
2022/08/16 02:52:38;;;;;;;5.17;4.67;;;20.90;72.60;;;;;;5057791;28;20502;-50
2022/08/16 02:55:10;;;;;;;5.47;5.07;;;20.90;72.70;;;;;;5085794;28;20480;-50
2022/08/16 02:57:41;;;;;;;5.90;5.30;;;20.90;72.80;;;;;;5063895;28;20840;-50
2022/08/16 03:00:20;;;;;;;6.60;5.87;;;20.80;72.90;;;;;;5070350;28;20895;-49
2022/08/16 03:03:01;;;;;;;4.83;4.43;;;20.80;73.00;;;;;;5084111;28;20456;-50
2022/08/16 03:05:29;;;;;;;5.37;4.97;;;20.70;73.20;;;;;;5086499;28;20460;-50
2022/08/16 03:07:59;;;;;;;5.13;4.73;;;20.70;73.30;;;;;;5082873;28;20514;-50
2022/08/16 03:10:26;;;;;;;5.30;4.90;;;20.70;73.40;;;;;;5088227;28;20457;-50
2022/08/16 03:12:59;;;;;;;6.23;4.37;;;20.70;73.40;;;;;;5080388;28;20514;-50
2022/08/16 03:15:29;;;;;;;6.20;5.37;;;20.60;73.40;;;;;;5078827;28;20481;-50
2022/08/16 03:17:56;;;;;;;5.60;5.10;;;20.60;73.50;;;;;;5083155;28;20463;-50
2022/08/16 03:20:23;;;;;;;5.53;5.10;;;20.60;73.50;;;;;;5087016;28;21019;-50
2022/08/16 03:22:58;;;;;;;7.50;5.33;;;20.70;73.20;;;;;;5086873;28;21846;-50
2022/08/16 03:25:28;;;;;;;6.50;5.90;;;20.70;73.20;;;;;;5081120;28;20822;-49
2022/08/16 03:28:08;;;;;;;5.93;5.33;;;20.60;73.30;;;;;;5068145;28;20969;-50
2022/08/16 03:30:37;;;;;;;6.63;5.30;;;20.60;73.40;;;;;;5065898;28;20552;-49
2022/08/16 03:33:04;;;;;;;6.13;5.50;;;20.50;73.70;;;;;;5067571;28;20457;-49
2022/08/16 03:35:35;;;;;;;6.93;5.10;;;20.40;73.90;;;;;;5068682;28;20495;-49
2022/08/16 03:38:08;;;;;;;6.03;5.43;;;20.40;74.10;;;;;;5065185;28;20468;-49
2022/08/16 03:40:57;;;;;;;5.60;5.10;;;20.40;74.20;;;;;;5083715;28;20464;-49
2022/08/16 03:43:26;;;;;;;5.20;4.80;;;20.40;74.30;;;;;;5085736;28;20467;-49
2022/08/16 03:46:12;;;;;;;5.57;5.03;;;20.40;74.50;;;;;;5081245;28;20526;-49
2022/08/16 03:48:59;;;;;;;5.83;5.33;;;20.40;74.50;;;;;;5080479;28;20460;-50
2022/08/16 03:51:27;;;;;;;6.80;5.47;;;20.30;74.60;;;;;;5088828;28;21021;-50
2022/08/16 03:53:54;;;;;;;6.40;5.40;;;20.30;74.70;;;;;;5063285;28;20499;-50
2022/08/16 03:56:27;;;;;;;6.83;5.30;;;20.30;74.70;;;;;;5083023;28;20577;-50
2022/08/16 03:58:56;;;;;;;5.60;5.17;;;20.30;74.60;;;;;;5081332;28;20479;-50
2022/08/16 04:01:25;;;;;;;5.60;5.20;;;20.30;74.70;;;;;;5084544;28;20460;-50
2022/08/16 04:03:55;;;;;;;5.17;4.77;;;20.30;74.80;;;;;;5084837;28;20460;-49
2022/08/16 04:06:22;;;;;;;7.90;5.93;;;20.20;74.90;;;;;;5066308;28;20472;-49
2022/08/16 04:08:49;;;;;;;6.47;5.73;;;20.10;75.00;;;;;;5086672;28;20975;-51
2022/08/16 04:11:16;;;;;;;6.27;5.67;;;20.20;75.00;;;;;;5082821;28;20489;-50
2022/08/16 04:13:44;;;;;;;6.27;5.60;;;20.20;75.00;;;;;;5087077;28;20468;-49
2022/08/16 04:16:31;;;;;;;6.10;5.60;;;20.10;75.00;;;;;;5067726;28;21189;-49
2022/08/16 04:18:59;;;;;;;7.10;5.77;;;20.10;74.80;;;;;;5067501;28;20835;-50
2022/08/16 04:21:33;;;;;;;6.13;5.53;;;20.20;74.50;;;;;;5081706;28;20457;-49
2022/08/16 04:24:01;;;;;;;7.03;6.40;;;20.20;73.60;;;;;;5085467;28;20460;-50
2022/08/16 04:26:29;;;;;;;6.50;5.90;;;20.10;73.50;;;;;;5085895;28;20534;-50
2022/08/16 04:29:01;;;;;;;6.50;5.90;;;20.10;73.70;;;;;;5077952;28;20484;-49
2022/08/16 04:31:49;;;;;;;5.20;4.80;;;20.10;73.50;;;;;;5081946;28;20581;-49
2022/08/16 04:34:25;;;;;;;6.93;6.30;;;20.00;73.70;;;;;;5061560;28;20463;-49
2022/08/16 04:36:53;;;;;;;6.80;6.13;;;20.00;73.90;;;;;;5077581;28;20504;-49
2022/08/16 04:39:22;;;;;;;7.17;6.47;;;19.90;74.20;;;;;;5084282;28;20465;-49
2022/08/16 04:41:50;;;;;;;8.03;6.00;;;19.90;74.30;;;;;;5074067;28;20460;-49
2022/08/16 04:44:23;;;;;;;7.90;6.80;;;19.90;74.50;;;;;;5064459;28;21100;-49
2022/08/16 04:47:11;;;;;;;10.23;6.97;;;19.80;74.80;;;;;;5086460;28;20464;-49
2022/08/16 04:49:50;;;;;;;7.10;6.47;;;19.80;75.20;;;;;;5085251;28;20999;-50
2022/08/16 04:52:18;;;;;;;7.10;6.40;;;19.80;75.20;;;;;;5056224;28;20461;-50
2022/08/16 04:55:05;;;;;;;7.30;6.60;;;19.80;75.70;;;;;;5080374;28;20553;-49
2022/08/16 04:57:33;;;;;;;8.50;7.67;;;19.80;75.70;;;;;;5075592;28;20469;-49
2022/08/16 05:00:01;;;;;;;8.13;7.33;;;19.90;75.70;;;;;;5060656;28;20539;-50
2022/08/16 05:02:49;;;;;;;8.50;7.70;;;19.90;75.70;;;;;;5083080;28;20456;-49
2022/08/16 05:05:22;;;;;;;12.37;6.83;;;19.90;75.80;;;;;;5081892;28;20523;-49
2022/08/16 05:07:49;;;;;;;8.37;7.57;;;19.90;75.80;;;;;;5068262;28;20492;-49
2022/08/16 05:10:27;;;;;;;8.53;7.73;;;19.90;75.80;;;;;;5061943;28;20981;-50
2022/08/16 05:13:00;;;;;;;7.90;6.97;;;19.90;75.80;;;;;;5075821;28;20540;-50
2022/08/16 05:15:29;;;;;;;8.10;7.30;;;19.90;75.90;;;;;;5083305;28;20488;-50
2022/08/16 05:17:58;;;;;;;8.30;7.40;;;19.90;76.00;;;;;;5087097;28;20496;-50
2022/08/16 05:20:29;;;;;;;7.73;6.90;;;19.90;76.00;;;;;;5075816;28;20512;-50
2022/08/16 05:23:11;;;;;;;8.10;7.40;;;19.90;76.00;;;;;;5060824;28;20594;-50
2022/08/16 05:25:39;;;;;;;8.57;7.13;;;20.00;76.00;;;;;;5076731;28;20583;-50
2022/08/16 05:28:15;;;;;;;8.67;7.43;;;20.00;76.00;;;;;;5079214;28;20469;-50
2022/08/16 05:30:42;;;;;;;7.60;6.90;;;20.00;75.80;;;;;;5079771;28;20465;-49
2022/08/16 05:33:09;;;;;;;7.57;6.70;;;20.10;75.80;;;;;;5087714;28;20965;-48
2022/08/16 05:35:44;;;;;;;8.87;7.40;;;20.10;75.80;;;;;;5084119;28;21661;-50
2022/08/16 05:38:26;;;;;;;8.03;6.83;;;20.10;75.90;;;;;;5072779;28;20544;-50
2022/08/16 05:41:04;;;;;;;10.03;6.73;;;20.20;75.90;;;;;;5083192;28;20472;-50
2022/08/16 05:43:31;;;;;;;8.47;6.93;;;20.20;75.80;;;;;;5078600;28;20492;-50
2022/08/16 05:46:16;;;;;;;7.47;6.67;;;20.30;75.80;;;;;;5065546;28;20488;-49
2022/08/16 05:48:58;;;;;;;8.00;7.20;;;20.30;75.70;;;;;;5090146;28;20464;-49
2022/08/16 05:51:35;;;;;;;9.63;7.60;;;20.30;75.70;;;;;;5069316;28;20464;-49
2022/08/16 05:54:07;;;;;;;8.63;7.77;;;20.40;75.70;;;;;;5087898;28;20464;-50
2022/08/16 05:56:38;;;;;;;8.33;7.57;;;20.50;75.50;;;;;;5082841;28;20573;-50
2022/08/16 05:59:06;;;;;;;9.17;8.27;;;20.50;75.20;;;;;;5063994;28;20460;-50
2022/08/16 06:01:34;;;;;;;9.67;7.83;;;20.60;75.30;;;;;;5079906;28;20464;-50
2022/08/16 06:04:09;;;;;;;7.77;7.07;;;20.60;75.40;;;;;;5066682;28;20497;-51
2022/08/16 06:06:41;;;;;;;8.40;7.60;;;20.70;75.30;;;;;;5072021;28;20472;-52
2022/08/16 06:09:22;;;;;;;9.50;7.90;;;20.70;75.30;;;;;;5074524;28;20457;-52
2022/08/16 06:11:49;;;;;;;9.10;8.20;;;20.80;75.20;;;;;;5065809;28;21105;-52
2022/08/16 06:14:17;;;;;;;9.63;8.67;;;20.80;75.10;;;;;;5082038;28;20865;-52
2022/08/16 06:16:43;;;;;;;9.70;8.10;;;20.90;74.70;;;;;;5089346;28;20495;-52
2022/08/16 06:19:16;;;;;;;8.50;7.70;;;20.90;74.70;;;;;;5086585;28;20535;-52
2022/08/16 06:21:44;;;;;;;10.10;9.00;;;21.00;74.70;;;;;;5091129;28;20456;-52
2022/08/16 06:24:10;;;;;;;8.90;8.10;;;21.00;74.80;;;;;;5091976;28;20830;-52
2022/08/16 06:26:57;;;;;;;10.30;8.80;;;21.00;75.00;;;;;;5074644;28;20522;-50
2022/08/16 06:29:27;;;;;;;8.30;7.47;;;21.00;75.10;;;;;;5066384;28;20555;-52
2022/08/16 06:32:03;;;;;;;11.33;9.07;;;21.00;74.90;;;;;;5072055;28;20457;-53
2022/08/16 06:34:33;;;;;;;12.50;9.20;;;21.00;75.00;;;;;;5060282;28;20506;-52
2022/08/16 06:37:19;;;;;;;9.47;8.60;;;21.10;74.90;;;;;;5072266;28;20472;-52
2022/08/16 06:39:46;;;;;;;9.90;8.90;;;21.20;74.40;;;;;;5090191;28;20444;-52
2022/08/16 06:42:17;;;;;;;9.90;8.13;;;21.30;74.40;;;;;;5089146;28;20440;-49
2022/08/16 06:44:45;;;;;;;9.50;8.50;;;21.30;74.10;;;;;;5067983;28;21287;-49
2022/08/16 06:47:13;;;;;;;9.90;8.50;;;21.40;74.00;;;;;;5071113;28;20447;-49
2022/08/16 06:49:43;;;;;;;9.17;8.17;;;21.40;74.00;;;;;;5088835;28;20463;-49
2022/08/16 06:52:19;;;;;;;9.37;8.47;;;21.50;73.90;;;;;;5084698;28;20466;-50
2022/08/16 06:55:08;;;;;;;9.57;8.60;;;21.60;73.60;;;;;;5087736;28;20960;-50
2022/08/16 06:57:40;;;;;;;8.33;7.57;;;21.60;73.60;;;;;;5071795;28;20493;-50
2022/08/16 07:00:13;;;;;;;11.63;9.03;;;21.70;73.60;;;;;;5087805;28;20457;-50
2022/08/16 07:02:52;;;;;;;8.67;7.83;;;21.70;73.30;;;;;;5070000;28;20441;-52
2022/08/16 07:05:20;;;;;;;10.30;7.40;;;21.80;73.30;;;;;;5086736;28;20535;-52
2022/08/16 07:08:09;;;;;;;8.30;7.50;;;21.80;73.20;;;;;;5098537;28;20464;-52
2022/08/16 07:10:37;;;;;;;9.90;8.73;;;21.90;73.00;;;;;;5087904;28;20457;-52
2022/08/16 07:13:07;;;;;;;9.70;8.70;;;21.90;72.80;;;;;;5087864;28;20456;-52
2022/08/16 07:15:39;;;;;;;10.90;9.13;;;22.00;72.60;;;;;;5085826;28;20484;-53
2022/08/16 07:18:21;;;;;;;11.13;8.63;;;22.10;72.40;;;;;;5079090;28;20490;-53
2022/08/16 07:20:52;;;;;;;10.50;8.50;;;22.10;72.20;;;;;;5069211;28;20464;-53
2022/08/16 07:23:20;;;;;;;8.77;7.87;;;22.20;72.00;;;;;;5083207;28;20453;-52
2022/08/16 07:26:10;;;;;;;8.47;7.57;;;22.30;71.90;;;;;;5088234;28;20480;-52
2022/08/16 07:28:51;;;;;;;8.70;7.33;;;22.30;71.60;;;;;;5086002;28;20831;-52
2022/08/16 07:31:19;;;;;;;8.77;7.77;;;22.50;71.50;;;;;;5084784;28;20488;-52
2022/08/16 07:33:46;;;;;;;8.30;6.93;;;22.60;71.10;;;;;;5088936;28;20515;-52
2022/08/16 07:36:21;;;;;;;7.90;7.30;;;22.70;70.70;;;;;;5087106;28;20484;-52
2022/08/16 07:38:48;;;;;;;8.20;7.50;;;22.70;70.60;;;;;;5069633;28;20923;-52
2022/08/16 07:41:16;;;;;;;7.60;6.90;;;22.80;70.30;;;;;;5067175;28;20456;-53
2022/08/16 07:43:45;;;;;;;7.90;7.20;;;22.90;70.00;;;;;;5084106;28;21626;-52
2022/08/16 07:46:13;;;;;;;7.67;6.97;;;23.00;69.90;;;;;;5084962;28;20863;-52
2022/08/16 07:49:00;;;;;;;8.60;7.80;;;23.10;69.60;;;;;;5072879;28;21417;-53
2022/08/16 07:51:35;;;;;;;8.87;7.97;;;23.10;69.20;;;;;;5086713;28;20452;-53
2022/08/16 07:54:05;;;;;;;8.03;7.20;;;23.30;69.10;;;;;;5088086;28;20449;-52
2022/08/16 07:56:36;;;;;;;8.13;7.33;;;23.40;68.60;;;;;;5087921;28;20563;-53
2022/08/16 07:59:04;;;;;;;8.27;7.37;;;23.50;68.20;;;;;;5066529;28;20460;-52
2022/08/16 08:01:31;;;;;;;7.50;6.80;;;23.60;67.70;;;;;;5069223;28;20977;-54
2022/08/16 08:04:00;;;;;;;8.10;7.40;;;23.60;67.50;;;;;;5066593;28;20501;-53
2022/08/16 08:06:30;;;;;;;6.90;6.30;;;23.70;67.30;;;;;;5086840;28;20876;-53
2022/08/16 08:08:58;;;;;;;8.53;7.70;;;23.70;67.50;;;;;;5087621;28;20444;-52
2022/08/16 08:11:27;;;;;;;10.00;6.73;;;23.80;67.40;;;;;;5088351;28;20444;-52
2022/08/16 08:13:56;;;;;;;7.83;7.17;;;23.90;67.30;;;;;;5069743;28;20455;-52
2022/08/16 08:16:29;;;;;;;7.83;6.40;;;24.00;66.80;;;;;;5084992;28;20483;-54
2022/08/16 08:18:59;;;;;;;7.07;6.47;;;24.20;66.10;;;;;;5085767;28;20981;-54
2022/08/16 08:21:29;;;;;;;8.20;7.40;;;24.20;66.00;;;;;;5086218;28;20444;-54
2022/08/16 08:24:16;;;;;;;8.53;7.00;;;24.30;65.60;;;;;;5073332;28;20481;-53
2022/08/16 08:26:43;;;;;;;6.60;6.10;;;24.40;65.30;;;;;;5067720;28;20468;-54
2022/08/16 08:29:19;;;;;;;6.87;6.23;;;24.50;65.10;;;;;;5086146;28;20463;-54
2022/08/16 08:31:51;;;;;;;7.77;7.07;;;24.70;64.30;;;;;;5063158;28;20459;-54
2022/08/16 08:34:19;;;;;;;7.47;6.77;;;24.70;64.10;;;;;;5085621;28;20445;-54
2022/08/16 08:36:48;;;;;;;7.70;5.90;;;24.70;63.90;;;;;;5069390;28;20484;-54
2022/08/16 08:39:20;;;;;;;7.33;6.63;;;24.80;63.60;;;;;;5065498;28;20487;-53
2022/08/16 08:41:46;;;;;;;6.50;6.00;;;24.90;63.40;;;;;;5068331;28;20959;-54
2022/08/16 08:44:15;;;;;;;6.60;6.07;;;25.00;62.80;;;;;;5084282;28;20463;-54
2022/08/16 08:47:02;;;;;;;7.80;6.50;;;25.20;62.50;;;;;;5086733;28;20573;-54
2022/08/16 08:49:37;;;;;;;7.53;6.33;;;25.30;62.20;;;;;;5067825;28;20491;-54
2022/08/16 08:52:13;;;;;;;7.03;5.87;;;25.50;61.70;;;;;;5068866;28;20451;-54
2022/08/16 08:55:03;;;;;;;6.57;5.60;;;25.50;61.30;;;;;;5086543;28;20451;-54
2022/08/16 08:57:35;;;;;;;5.90;5.40;;;25.60;61.10;;;;;;5084906;28;20487;-54
2022/08/16 09:00:04;;;;;;;5.50;5.00;;;25.70;60.50;;;;;;5065026;28;20456;-54
2022/08/16 09:02:41;;;;;;;5.73;5.23;;;25.80;60.50;;;;;;5083095;28;20455;-53
2022/08/16 09:05:12;;;;;;;6.17;5.60;;;26.00;59.80;;;;;;5085195;28;20452;-54
2022/08/16 09:07:43;;;;;;;6.00;5.50;;;26.10;59.50;;;;;;5085581;28;20827;-54
2022/08/16 09:10:28;;;;;;;5.80;5.30;;;26.10;59.60;;;;;;5084055;28;20464;-54
2022/08/16 09:12:56;;;;;;;5.47;4.97;;;26.20;59.10;;;;;;5078796;28;20472;-54
2022/08/16 09:15:23;;;;;;;6.40;5.80;;;26.20;58.60;;;;;;5085372;28;20920;-54
2022/08/16 09:17:54;;;;;;;5.07;4.67;;;26.30;58.60;;;;;;5066754;28;20879;-54
2022/08/16 09:20:26;;;;;;;5.20;4.70;;;26.40;58.40;;;;;;5082961;28;20501;-54
2022/08/16 09:22:53;;;;;;;5.90;5.40;;;26.50;58.30;;;;;;5083362;28;20809;-53
2022/08/16 09:25:21;;;;;;;4.93;4.53;;;26.70;57.50;;;;;;5086574;28;20977;-54
2022/08/16 09:27:59;;;;;;;5.73;4.53;;;26.80;57.10;;;;;;5070750;28;20880;-54
2022/08/16 09:30:34;;;;;;;5.50;5.00;;;26.90;56.60;;;;;;5085730;28;20516;-54
2022/08/16 09:33:10;;;;;;;5.40;5.00;;;27.00;56.20;;;;;;5086233;28;20479;-54
2022/08/16 09:35:37;;;;;;;5.10;4.70;;;27.10;55.80;;;;;;5086146;28;20456;-54
2022/08/16 09:38:08;;;;;;;5.63;5.13;;;27.10;56.00;;;;;;5084177;28;20867;-54
2022/08/16 09:40:38;;;;;;;6.03;5.53;;;27.20;56.10;;;;;;5081981;28;20793;-54
2022/08/16 09:43:11;;;;;;;5.90;5.30;;;27.20;56.10;;;;;;5083747;28;20216;-55
2022/08/16 09:45:58;;;;;;;6.97;5.50;;;27.20;56.00;;;;;;5083797;28;21207;-54
2022/08/16 09:48:27;;;;;;;4.73;4.13;;;27.10;55.90;;;;;;5067934;28;20447;-53
2022/08/16 09:51:11;;;;;;;4.70;4.20;;;27.00;55.50;;;;;;5085307;28;20459;-53
2022/08/16 09:53:38;;;;;;;5.13;4.67;;;26.80;55.90;;;;;;5085795;28;20825;-54
2022/08/16 09:56:17;;;;;;;5.03;4.63;;;26.80;55.80;;;;;;5068271;28;20458;-54
2022/08/16 09:58:44;;;;;;;4.80;4.40;;;26.90;55.10;;;;;;5085818;28;20997;-54
2022/08/16 10:01:31;;;;;;;4.67;4.27;;;27.10;54.50;;;;;;5083768;28;20463;-53
2022/08/16 10:03:59;;;;;;;5.27;4.87;;;27.30;54.50;;;;;;5083026;28;20460;-54
2022/08/16 10:06:29;;;;;;;5.40;4.97;;;27.50;54.00;;;;;;5067552;28;20464;-54
2022/08/16 10:09:04;;;;;;;5.47;4.97;;;27.70;54.40;;;;;;5066318;28;20485;-54
2022/08/16 10:14:23;;;;;;;6.17;5.67;;;28.10;53.60;;;;;;5086412;28;20461;-53
2022/08/16 10:17:03;;;;;;;5.80;5.20;;;28.20;52.90;;;;;;5088970;28;20229;-53
2022/08/16 10:19:31;;;;;;;6.17;5.60;;;28.20;52.70;;;;;;5068686;28;20317;-54
2022/08/16 10:21:58;;;;;;;6.00;5.50;;;28.10;52.30;;;;;;5088036;28;20582;-54
2022/08/16 10:24:31;;;;;;;5.70;5.20;;;28.00;52.90;;;;;;5086518;28;20512;-54
2022/08/16 10:26:58;;;;;;;5.50;5.07;;;28.00;52.80;;;;;;5086748;28;20216;-54
2022/08/16 10:29:45;;;;;;;5.07;4.67;;;28.10;53.00;;;;;;5084426;28;21037;-54
2022/08/16 10:32:28;;;;;;;5.83;5.33;;;28.10;53.00;;;;;;5088174;28;20462;-54
2022/08/16 10:34:57;;;;;;;6.33;5.77;;;28.10;52.90;;;;;;5089138;28;20210;-54
2022/08/16 10:37:24;;;;;;;7.63;6.27;;;28.00;53.10;;;;;;5089688;28;20491;-54
2022/08/16 10:40:07;;;;;;;5.90;5.30;;;28.00;53.30;;;;;;5088221;28;20209;-54
2022/08/16 10:42:54;;;;;;;6.70;6.20;;;27.90;53.40;;;;;;5087108;28;20480;-54
2022/08/16 10:45:22;;;;;;;5.50;5.00;;;27.80;53.40;;;;;;5066141;28;20199;-54
2022/08/16 10:47:49;;;;;;;5.00;4.60;;;27.80;53.60;;;;;;5089430;28;20210;-54
2022/08/16 10:50:31;;;;;;;5.40;5.00;;;27.70;53.90;;;;;;5073501;28;20567;-54
2022/08/16 10:52:58;;;;;;;6.17;5.67;;;27.80;53.70;;;;;;5082877;28;20216;-54
2022/08/16 10:55:25;;;;;;;5.50;4.83;;;27.80;53.50;;;;;;5087351;28;20214;-54
2022/08/16 10:58:14;;;;;;;5.07;4.67;;;27.90;53.40;;;;;;5071749;28;20253;-54
2022/08/16 11:00:43;;;;;;;6.57;6.07;;;27.90;53.30;;;;;;5084325;28;20568;-54
2022/08/16 11:03:12;;;;;;;6.40;5.80;;;27.90;53.10;;;;;;5081521;28;20452;-54
2022/08/16 11:06:00;;;;;;;5.27;4.87;;;27.90;53.10;;;;;;5081397;28;20260;-54
2022/08/16 11:08:32;;;;;;;5.80;5.27;;;27.90;53.20;;;;;;5084723;28;20260;-54
2022/08/16 11:11:04;;;;;;;6.67;4.50;;;27.80;53.40;;;;;;5082230;28;20217;-54
2022/08/16 11:13:37;;;;;;;5.97;5.40;;;27.70;53.30;;;;;;5083557;28;20440;-53
2022/08/16 11:16:23;;;;;;;4.40;4.00;;;27.70;53.20;;;;;;5086517;28;20202;-54
2022/08/16 11:18:53;;;;;;;5.00;4.50;;;27.60;53.00;;;;;;5085311;28;20237;-54
2022/08/16 11:21:39;;;;;;;7.10;5.00;;;27.60;53.00;;;;;;5082484;28;20543;-54
2022/08/16 11:24:27;;;;;;;6.73;5.00;;;27.60;52.80;;;;;;5084317;28;20453;-54
2022/08/16 11:27:16;;;;;;;5.50;4.97;;;27.50;52.90;;;;;;5082331;28;20551;-54
2022/08/16 11:29:48;;;;;;;4.90;4.40;;;27.40;53.00;;;;;;5084919;28;20202;-54
2022/08/16 11:32:17;;;;;;;5.27;4.87;;;27.40;53.00;;;;;;5086263;28;20997;-54
2022/08/16 11:34:48;;;;;;;4.53;4.23;;;27.40;53.00;;;;;;5079004;28;20207;-54
2022/08/16 11:37:35;;;;;;;4.53;4.13;;;27.40;52.90;;;;;;5067356;28;20511;-54
2022/08/16 11:40:24;;;;;;;5.97;5.17;;;27.40;52.80;;;;;;5080300;28;20460;-54
2022/08/16 11:43:00;;;;;;;4.90;4.50;;;27.40;53.10;;;;;;5084688;28;20225;-54
2022/08/16 11:45:29;;;;;;;4.80;4.40;;;27.50;52.60;;;;;;5061555;28;20665;-54
2022/08/16 11:48:02;;;;;;;4.30;4.00;;;27.50;52.10;;;;;;5083350;28;20267;-54
2022/08/16 11:50:32;;;;;;;5.67;3.80;;;27.50;52.20;;;;;;5079891;28;20472;-54
2022/08/16 11:53:04;;;;;;;4.50;4.17;;;27.60;52.10;;;;;;5064281;28;20210;-54
2022/08/16 11:55:35;;;;;;;4.80;4.40;;;27.60;51.60;;;;;;5060248;28;20489;-54
2022/08/16 11:58:05;;;;;;;4.90;4.50;;;27.60;51.40;;;;;;5082893;28;20910;-54
2022/08/16 12:00:32;;;;;;;4.87;4.33;;;27.60;51.60;;;;;;5079233;28;20960;-53
2022/08/16 12:03:19;;;;;;;4.60;4.20;;;27.60;51.70;;;;;;5062093;28;20255;-54
2022/08/16 12:06:08;;;;;;;5.20;4.80;;;27.60;51.60;;;;;;5082273;28;20246;-54
2022/08/16 12:08:56;;;;;;;5.03;4.63;;;27.60;51.80;;;;;;5082228;28;20830;-54
2022/08/16 12:11:27;;;;;;;5.33;4.93;;;27.60;51.70;;;;;;5084718;28;20467;-54
2022/08/16 12:13:58;;;;;;;10.70;5.07;;;27.60;51.90;;;;;;5082628;28;20297;-54
2022/08/16 12:16:25;;;;;;;4.80;4.40;;;27.70;51.80;;;;;;5068014;28;20471;-54
2022/08/16 12:19:01;;;;;;;4.57;4.27;;;27.70;51.40;;;;;;5082606;28;20491;-54
2022/08/16 12:21:30;;;;;;;5.03;4.53;;;27.70;51.10;;;;;;5085288;28;20488;-54
2022/08/16 12:24:17;;;;;;;4.60;4.20;;;27.70;51.10;;;;;;5080587;28;20444;-55
2022/08/16 12:26:44;;;;;;;4.50;4.20;;;27.70;51.00;;;;;;5063809;28;20210;-55
2022/08/16 12:29:11;;;;;;;4.73;4.33;;;27.70;51.10;;;;;;5082849;28;20202;-54
2022/08/16 12:31:38;;;;;;;4.47;4.17;;;27.70;50.90;;;;;;5080686;28;20671;-54
2022/08/16 12:34:25;;;;;;;8.70;4.90;;;27.70;50.50;;;;;;5083584;28;20452;-55
2022/08/16 12:36:55;;;;;;;5.87;4.80;;;27.70;50.40;;;;;;5083383;28;20633;-55
2022/08/16 12:39:22;;;;;;;5.47;4.97;;;27.70;50.70;;;;;;5063446;28;20570;-54
2022/08/16 12:41:55;;;;;;;5.50;5.10;;;27.70;50.80;;;;;;5084165;28;20464;-55
2022/08/16 12:44:24;;;;;;;5.30;4.90;;;27.70;51.30;;;;;;5059287;28;20491;-54
2022/08/16 12:49:40;;;;;;;4.47;4.17;;;27.80;51.00;;;;;;5085087;28;20463;-55
2022/08/16 12:52:08;;;;;;;5.30;4.80;;;27.80;51.30;;;;;;5083783;28;20212;-55
2022/08/16 12:54:56;;;;;;;4.67;4.27;;;27.80;50.70;;;;;;5062738;28;20501;-55
2022/08/16 12:57:24;;;;;;;5.50;5.00;;;27.80;51.00;;;;;;5067636;28;20320;-55
2022/08/16 13:00:06;;;;;;;4.87;4.57;;;27.80;51.70;;;;;;5069145;28;20439;-55
2022/08/16 13:02:33;;;;;;;5.00;4.70;;;27.80;51.30;;;;;;5084494;28;20737;-55
2022/08/16 13:05:03;;;;;;;5.30;4.80;;;27.80;51.90;;;;;;5086087;28;20206;-55
2022/08/16 13:07:32;;;;;;;5.17;4.83;;;27.80;51.90;;;;;;5087522;28;20586;-55
2022/08/16 13:10:13;;;;;;;7.07;5.67;;;27.80;52.50;;;;;;5067786;28;20300;-55
2022/08/16 13:13:00;;;;;;;7.43;5.30;;;27.90;52.30;;;;;;5083448;28;20420;-55
2022/08/16 13:15:29;;;;;;;6.03;5.33;;;27.90;51.90;;;;;;5081683;28;20205;-55
2022/08/16 13:17:57;;;;;;;5.53;5.03;;;27.80;52.20;;;;;;5084904;28;20747;-55
2022/08/16 13:20:27;;;;;;;5.73;5.23;;;27.80;52.20;;;;;;5062798;28;20489;-54
2022/08/16 13:23:08;;;;;;;6.37;5.70;;;27.80;52.40;;;;;;5069009;28;20460;-54
2022/08/16 13:25:37;;;;;;;6.50;5.70;;;27.80;52.80;;;;;;5082551;28;20557;-54